sensor_id;sensor_type;location;lat;lon;timestamp;temperature;humidity
34837;DHT22;21053;50.848;4.652;2023-04-03T00:00:57;2.80;99.90
34837;DHT22;21053;50.848;4.652;2023-04-03T00:03:23;2.80;99.90
34837;DHT22;21053;50.848;4.652;2023-04-03T00:05:50;2.70;99.90
34837;DHT22;21053;50.848;4.652;2023-04-03T00:08:19;2.70;99.90
34837;DHT22;21053;50.848;4.652;2023-04-03T00:10:44;2.70;99.90
34837;DHT22;21053;50.848;4.652;2023-04-03T00:13:12;2.60;99.90
34837;DHT22;21053;50.848;4.652;2023-04-03T00:15:38;2.60;99.90
34837;DHT22;21053;50.848;4.652;2023-04-03T00:18:04;2.50;99.90
34837;DHT22;21053;50.848;4.652;2023-04-03T00:20:34;2.50;99.90
34837;DHT22;21053;50.848;4.652;2023-04-03T00:23:03;2.50;99.90
34837;DHT22;21053;50.848;4.652;2023-04-03T00:25:30;2.40;99.90
34837;DHT22;21053;50.848;4.652;2023-04-03T00:27:57;2.40;99.90
34837;DHT22;21053;50.848;4.652;2023-04-03T00:30:23;2.40;99.90
34837;DHT22;21053;50.848;4.652;2023-04-03T00:32:50;2.30;99.90
34837;DHT22;21053;50.848;4.652;2023-04-03T00:35:19;2.20;99.90
34837;DHT22;21053;50.848;4.652;2023-04-03T00:37:51;2.10;99.90
34837;DHT22;21053;50.848;4.652;2023-04-03T00:40:19;2.10;99.90
34837;DHT22;21053;50.848;4.652;2023-04-03T00:42:53;2.20;99.90
34837;DHT22;21053;50.848;4.652;2023-04-03T00:45:35;2.30;99.90
34837;DHT22;21053;50.848;4.652;2023-04-03T00:48:04;2.30;99.90
34837;DHT22;21053;50.848;4.652;2023-04-03T00:50:33;2.20;99.90
34837;DHT22;21053;50.848;4.652;2023-04-03T00:53:01;2.20;99.90
34837;DHT22;21053;50.848;4.652;2023-04-03T00:55:29;2.20;99.90
34837;DHT22;21053;50.848;4.652;2023-04-03T00:57:58;2.20;99.90
34837;DHT22;21053;50.848;4.652;2023-04-03T01:00:26;2.30;99.90
34837;DHT22;21053;50.848;4.652;2023-04-03T01:02:52;2.30;99.90
34837;DHT22;21053;50.848;4.652;2023-04-03T01:05:19;2.40;99.90
34837;DHT22;21053;50.848;4.652;2023-04-03T01:07:49;2.30;99.90
34837;DHT22;21053;50.848;4.652;2023-04-03T01:10:19;2.30;99.90
34837;DHT22;21053;50.848;4.652;2023-04-03T01:12:49;2.30;99.90
34837;DHT22;21053;50.848;4.652;2023-04-03T01:15:23;2.30;99.90
34837;DHT22;21053;50.848;4.652;2023-04-03T01:17:52;2.30;99.90
34837;DHT22;21053;50.848;4.652;2023-04-03T01:25:55;2.10;99.90
34837;DHT22;21053;50.848;4.652;2023-04-03T01:28:32;2.10;99.90
34837;DHT22;21053;50.848;4.652;2023-04-03T01:33:56;2.10;99.90
34837;DHT22;21053;50.848;4.652;2023-04-03T01:36:28;2.10;99.90
34837;DHT22;21053;50.848;4.652;2023-04-03T01:38:56;2.00;99.90
34837;DHT22;21053;50.848;4.652;2023-04-03T01:41:23;2.10;99.90
34837;DHT22;21053;50.848;4.652;2023-04-03T01:43:51;2.00;99.90
34837;DHT22;21053;50.848;4.652;2023-04-03T01:46:19;2.10;99.90
34837;DHT22;21053;50.848;4.652;2023-04-03T01:48:47;2.10;99.90
34837;DHT22;21053;50.848;4.652;2023-04-03T01:51:13;2.10;99.90
34837;DHT22;21053;50.848;4.652;2023-04-03T01:53:42;2.00;99.90
34837;DHT22;21053;50.848;4.652;2023-04-03T01:56:08;2.00;99.90
34837;DHT22;21053;50.848;4.652;2023-04-03T01:58:34;2.00;99.90
34837;DHT22;21053;50.848;4.652;2023-04-03T02:01:01;2.00;99.90
34837;DHT22;21053;50.848;4.652;2023-04-03T02:03:28;1.90;99.90
34837;DHT22;21053;50.848;4.652;2023-04-03T02:05:57;2.00;99.90
34837;DHT22;21053;50.848;4.652;2023-04-03T02:08:26;2.00;99.90
34837;DHT22;21053;50.848;4.652;2023-04-03T02:10:53;2.00;99.90
34837;DHT22;21053;50.848;4.652;2023-04-03T02:13:21;2.00;99.90
34837;DHT22;21053;50.848;4.652;2023-04-03T02:15:47;2.00;99.90
34837;DHT22;21053;50.848;4.652;2023-04-03T02:18:14;2.00;99.90
34837;DHT22;21053;50.848;4.652;2023-04-03T02:20:41;1.90;99.90
34837;DHT22;21053;50.848;4.652;2023-04-03T02:23:08;2.00;99.90
34837;DHT22;21053;50.848;4.652;2023-04-03T02:25:37;1.90;99.90
34837;DHT22;21053;50.848;4.652;2023-04-03T02:28:06;1.90;99.90
34837;DHT22;21053;50.848;4.652;2023-04-03T02:30:32;1.80;99.90
34837;DHT22;21053;50.848;4.652;2023-04-03T02:32:58;1.90;99.90
34837;DHT22;21053;50.848;4.652;2023-04-03T02:35:27;2.00;99.90
34837;DHT22;21053;50.848;4.652;2023-04-03T02:37:54;1.90;99.90
34837;DHT22;21053;50.848;4.652;2023-04-03T02:40:23;1.90;99.90
34837;DHT22;21053;50.848;4.652;2023-04-03T02:42:49;1.90;99.90
34837;DHT22;21053;50.848;4.652;2023-04-03T02:45:16;1.90;99.90
34837;DHT22;21053;50.848;4.652;2023-04-03T02:47:44;1.80;99.90
34837;DHT22;21053;50.848;4.652;2023-04-03T02:50:09;1.80;99.90
34837;DHT22;21053;50.848;4.652;2023-04-03T02:52:37;1.70;99.90
34837;DHT22;21053;50.848;4.652;2023-04-03T02:55:04;1.60;99.90
34837;DHT22;21053;50.848;4.652;2023-04-03T02:57:33;1.70;99.90
34837;DHT22;21053;50.848;4.652;2023-04-03T03:00:00;1.60;99.90
34837;DHT22;21053;50.848;4.652;2023-04-03T03:02:27;1.50;99.90
34837;DHT22;21053;50.848;4.652;2023-04-03T03:04:54;1.60;99.90
34837;DHT22;21053;50.848;4.652;2023-04-03T03:07:23;1.60;99.90
34837;DHT22;21053;50.848;4.652;2023-04-03T03:09:52;1.60;99.90
34837;DHT22;21053;50.848;4.652;2023-04-03T03:12:19;1.70;99.90
34837;DHT22;21053;50.848;4.652;2023-04-03T03:14:49;1.60;99.90
34837;DHT22;21053;50.848;4.652;2023-04-03T03:17:16;1.60;99.90
34837;DHT22;21053;50.848;4.652;2023-04-03T03:19:42;1.60;99.90
34837;DHT22;21053;50.848;4.652;2023-04-03T03:22:08;1.60;99.90
34837;DHT22;21053;50.848;4.652;2023-04-03T03:24:37;1.50;99.90
34837;DHT22;21053;50.848;4.652;2023-04-03T03:27:04;1.50;99.90
34837;DHT22;21053;50.848;4.652;2023-04-03T03:29:30;1.50;99.90
34837;DHT22;21053;50.848;4.652;2023-04-03T03:31:59;1.40;99.90
34837;DHT22;21053;50.848;4.652;2023-04-03T03:34:27;1.50;99.90
34837;DHT22;21053;50.848;4.652;2023-04-03T03:36:52;1.70;99.90
34837;DHT22;21053;50.848;4.652;2023-04-03T03:39:20;1.70;99.90
34837;DHT22;21053;50.848;4.652;2023-04-03T03:41:48;1.60;99.90
34837;DHT22;21053;50.848;4.652;2023-04-03T03:44:16;1.60;99.90
34837;DHT22;21053;50.848;4.652;2023-04-03T03:46:42;1.60;99.90
34837;DHT22;21053;50.848;4.652;2023-04-03T03:49:09;1.50;99.90
34837;DHT22;21053;50.848;4.652;2023-04-03T03:51:36;1.60;99.90
34837;DHT22;21053;50.848;4.652;2023-04-03T03:54:03;1.50;99.90
34837;DHT22;21053;50.848;4.652;2023-04-03T03:56:33;1.40;99.90
34837;DHT22;21053;50.848;4.652;2023-04-03T03:58:59;1.30;99.90
34837;DHT22;21053;50.848;4.652;2023-04-03T04:01:26;1.30;99.90
34837;DHT22;21053;50.848;4.652;2023-04-03T04:03:52;1.40;99.90
34837;DHT22;21053;50.848;4.652;2023-04-03T04:06:20;1.30;99.90
34837;DHT22;21053;50.848;4.652;2023-04-03T04:08:49;1.20;99.90
34837;DHT22;21053;50.848;4.652;2023-04-03T04:11:18;1.20;99.90
34837;DHT22;21053;50.848;4.652;2023-04-03T04:13:44;1.30;99.90
34837;DHT22;21053;50.848;4.652;2023-04-03T04:16:10;1.20;99.90
34837;DHT22;21053;50.848;4.652;2023-04-03T04:18:35;1.30;99.90
34837;DHT22;21053;50.848;4.652;2023-04-03T04:21:01;1.30;99.90
34837;DHT22;21053;50.848;4.652;2023-04-03T04:23:28;1.40;99.90
34837;DHT22;21053;50.848;4.652;2023-04-03T04:25:53;1.30;99.90
34837;DHT22;21053;50.848;4.652;2023-04-03T04:28:19;1.30;99.90
34837;DHT22;21053;50.848;4.652;2023-04-03T04:30:48;1.20;99.90
34837;DHT22;21053;50.848;4.652;2023-04-03T04:33:14;1.20;99.90
34837;DHT22;21053;50.848;4.652;2023-04-03T04:35:42;1.20;99.90
34837;DHT22;21053;50.848;4.652;2023-04-03T04:38:09;1.20;99.90
34837;DHT22;21053;50.848;4.652;2023-04-03T04:40:35;1.20;99.90
34837;DHT22;21053;50.848;4.652;2023-04-03T04:43:04;1.10;99.90
34837;DHT22;21053;50.848;4.652;2023-04-03T04:45:32;1.10;99.90
34837;DHT22;21053;50.848;4.652;2023-04-03T04:48:01;1.20;99.90
34837;DHT22;21053;50.848;4.652;2023-04-03T04:50:27;1.20;99.90
34837;DHT22;21053;50.848;4.652;2023-04-03T04:52:54;1.20;99.90
34837;DHT22;21053;50.848;4.652;2023-04-03T04:55:21;1.00;99.90
34837;DHT22;21053;50.848;4.652;2023-04-03T04:57:47;1.10;99.90
34837;DHT22;21053;50.848;4.652;2023-04-03T05:00:14;1.10;99.90
34837;DHT22;21053;50.848;4.652;2023-04-03T05:02:43;1.10;99.90
34837;DHT22;21053;50.848;4.652;2023-04-03T05:05:11;1.10;99.90
34837;DHT22;21053;50.848;4.652;2023-04-03T05:07:37;1.10;99.90
34837;DHT22;21053;50.848;4.652;2023-04-03T05:10:03;1.10;99.90
34837;DHT22;21053;50.848;4.652;2023-04-03T05:12:29;1.10;99.90
34837;DHT22;21053;50.848;4.652;2023-04-03T05:14:55;1.10;99.90
34837;DHT22;21053;50.848;4.652;2023-04-03T05:17:22;1.10;99.90
34837;DHT22;21053;50.848;4.652;2023-04-03T05:19:48;1.00;99.90
34837;DHT22;21053;50.848;4.652;2023-04-03T05:22:16;1.00;99.90
34837;DHT22;21053;50.848;4.652;2023-04-03T05:24:42;1.00;99.90
34837;DHT22;21053;50.848;4.652;2023-04-03T05:27:08;1.00;99.90
34837;DHT22;21053;50.848;4.652;2023-04-03T05:29:34;1.00;99.90
34837;DHT22;21053;50.848;4.652;2023-04-03T05:32:00;1.00;99.90
34837;DHT22;21053;50.848;4.652;2023-04-03T05:34:26;0.90;99.90
34837;DHT22;21053;50.848;4.652;2023-04-03T05:36:55;1.00;99.90
34837;DHT22;21053;50.848;4.652;2023-04-03T05:39:22;1.00;99.90
34837;DHT22;21053;50.848;4.652;2023-04-03T05:41:52;1.10;99.90
34837;DHT22;21053;50.848;4.652;2023-04-03T05:44:20;1.00;99.90
34837;DHT22;21053;50.848;4.652;2023-04-03T05:46:49;1.00;99.90
34837;DHT22;21053;50.848;4.652;2023-04-03T05:49:21;1.10;99.90
34837;DHT22;21053;50.848;4.652;2023-04-03T05:51:49;1.10;99.90
34837;DHT22;21053;50.848;4.652;2023-04-03T05:54:21;1.20;99.90
34837;DHT22;21053;50.848;4.652;2023-04-03T05:56:50;1.20;99.90
34837;DHT22;21053;50.848;4.652;2023-04-03T05:59:18;1.30;99.90
34837;DHT22;21053;50.848;4.652;2023-04-03T06:01:43;1.40;99.90
34837;DHT22;21053;50.848;4.652;2023-04-03T06:04:11;3.20;99.90
34837;DHT22;21053;50.848;4.652;2023-04-03T06:06:57;1.50;99.90
34837;DHT22;21053;50.848;4.652;2023-04-03T06:09:27;1.30;99.90
34837;DHT22;21053;50.848;4.652;2023-04-03T06:11:57;1.50;99.90
34837;DHT22;21053;50.848;4.652;2023-04-03T06:14:27;1.50;99.90
34837;DHT22;21053;50.848;4.652;2023-04-03T06:16:59;1.60;99.90
34837;DHT22;21053;50.848;4.652;2023-04-03T06:19:36;1.80;99.90
34837;DHT22;21053;50.848;4.652;2023-04-03T06:22:05;1.90;99.90
34837;DHT22;21053;50.848;4.652;2023-04-03T06:24:34;1.90;99.90
34837;DHT22;21053;50.848;4.652;2023-04-03T06:27:02;2.00;99.90
34837;DHT22;21053;50.848;4.652;2023-04-03T06:29:29;2.10;99.90
34837;DHT22;21053;50.848;4.652;2023-04-03T06:31:58;2.20;99.90
34837;DHT22;21053;50.848;4.652;2023-04-03T06:34:27;2.30;99.90
34837;DHT22;21053;50.848;4.652;2023-04-03T06:36:53;2.40;99.90
34837;DHT22;21053;50.848;4.652;2023-04-03T06:39:21;2.40;99.90
34837;DHT22;21053;50.848;4.652;2023-04-03T06:41:49;2.50;99.90
34837;DHT22;21053;50.848;4.652;2023-04-03T06:44:18;2.60;99.90
34837;DHT22;21053;50.848;4.652;2023-04-03T06:46:44;2.70;99.90
34837;DHT22;21053;50.848;4.652;2023-04-03T06:49:12;2.80;99.90
34837;DHT22;21053;50.848;4.652;2023-04-03T06:51:38;2.90;99.90
34837;DHT22;21053;50.848;4.652;2023-04-03T06:54:05;3.00;99.90
34837;DHT22;21053;50.848;4.652;2023-04-03T06:56:32;3.20;99.90
34837;DHT22;21053;50.848;4.652;2023-04-03T06:59:00;3.20;99.90
34837;DHT22;21053;50.848;4.652;2023-04-03T07:01:32;3.20;99.90
34837;DHT22;21053;50.848;4.652;2023-04-03T07:03:58;3.50;99.90
34837;DHT22;21053;50.848;4.652;2023-04-03T07:06:25;3.70;99.90
34837;DHT22;21053;50.848;4.652;2023-04-03T07:08:55;3.70;99.90
34837;DHT22;21053;50.848;4.652;2023-04-03T07:11:23;3.90;99.90
34837;DHT22;21053;50.848;4.652;2023-04-03T07:13:50;5.50;99.90
34837;DHT22;21053;50.848;4.652;2023-04-03T07:16:19;4.20;99.90
34837;DHT22;21053;50.848;4.652;2023-04-03T07:18:47;4.20;99.90
34837;DHT22;21053;50.848;4.652;2023-04-03T07:21:14;4.50;99.90
34837;DHT22;21053;50.848;4.652;2023-04-03T07:23:40;4.60;99.90
34837;DHT22;21053;50.848;4.652;2023-04-03T07:26:07;4.90;99.90
34837;DHT22;21053;50.848;4.652;2023-04-03T07:28:36;5.10;99.90
34837;DHT22;21053;50.848;4.652;2023-04-03T07:31:08;5.30;99.90
34837;DHT22;21053;50.848;4.652;2023-04-03T07:33:37;5.60;99.90
34837;DHT22;21053;50.848;4.652;2023-04-03T07:36:04;6.00;99.90
34837;DHT22;21053;50.848;4.652;2023-04-03T07:38:35;6.70;99.90
34837;DHT22;21053;50.848;4.652;2023-04-03T07:41:04;7.00;99.90
34837;DHT22;21053;50.848;4.652;2023-04-03T07:43:32;6.90;99.90
34837;DHT22;21053;50.848;4.652;2023-04-03T07:45:59;7.10;99.90
34837;DHT22;21053;50.848;4.652;2023-04-03T07:48:29;7.40;99.90
34837;DHT22;21053;50.848;4.652;2023-04-03T07:51:02;7.90;99.90
34837;DHT22;21053;50.848;4.652;2023-04-03T07:53:32;8.50;99.90
34837;DHT22;21053;50.848;4.652;2023-04-03T07:55:59;9.40;99.90
34837;DHT22;21053;50.848;4.652;2023-04-03T07:58:29;9.70;99.70
34837;DHT22;21053;50.848;4.652;2023-04-03T08:00:55;10.30;98.10
34837;DHT22;21053;50.848;4.652;2023-04-03T08:03:24;11.00;96.50
34837;DHT22;21053;50.848;4.652;2023-04-03T08:05:53;11.20;95.50
34837;DHT22;21053;50.848;4.652;2023-04-03T08:08:22;11.70;95.70
34837;DHT22;21053;50.848;4.652;2023-04-03T08:10:51;12.10;94.30
34837;DHT22;21053;50.848;4.652;2023-04-03T08:13:19;11.80;93.50
34837;DHT22;21053;50.848;4.652;2023-04-03T08:15:46;12.00;93.80
34837;DHT22;21053;50.848;4.652;2023-04-03T08:18:14;12.00;93.60
34837;DHT22;21053;50.848;4.652;2023-04-03T08:20:41;11.90;92.60
34837;DHT22;21053;50.848;4.652;2023-04-03T08:23:09;13.30;91.20
34837;DHT22;21053;50.848;4.652;2023-04-03T08:25:39;13.40;90.70
34837;DHT22;21053;50.848;4.652;2023-04-03T08:28:09;14.60;89.90
34837;DHT22;21053;50.848;4.652;2023-04-03T08:30:41;15.60;85.30
34837;DHT22;21053;50.848;4.652;2023-04-03T08:33:09;15.90;79.60
34837;DHT22;21053;50.848;4.652;2023-04-03T08:35:41;15.50;80.20
34837;DHT22;21053;50.848;4.652;2023-04-03T08:38:10;14.90;82.40
34837;DHT22;21053;50.848;4.652;2023-04-03T08:40:38;14.50;83.60
34837;DHT22;21053;50.848;4.652;2023-04-03T08:45:52;14.40;81.30
34837;DHT22;21053;50.848;4.652;2023-04-03T08:48:35;14.10;82.90
34837;DHT22;21053;50.848;4.652;2023-04-03T08:51:20;13.80;84.40
34837;DHT22;21053;50.848;4.652;2023-04-03T08:53:59;14.50;79.70
34837;DHT22;21053;50.848;4.652;2023-04-03T08:56:27;15.00;78.60
34837;DHT22;21053;50.848;4.652;2023-04-03T08:59:06;14.90;78.10
34837;DHT22;21053;50.848;4.652;2023-04-03T09:01:40;14.80;80.50
34837;DHT22;21053;50.848;4.652;2023-04-03T09:04:12;15.60;77.00
34837;DHT22;21053;50.848;4.652;2023-04-03T09:06:39;16.40;72.90
34837;DHT22;21053;50.848;4.652;2023-04-03T09:11:51;15.80;75.00
34837;DHT22;21053;50.848;4.652;2023-04-03T09:14:37;15.80;75.10
34837;DHT22;21053;50.848;4.652;2023-04-03T09:17:13;15.90;73.10
34837;DHT22;21053;50.848;4.652;2023-04-03T09:19:49;16.30;69.50
34837;DHT22;21053;50.848;4.652;2023-04-03T09:22:28;16.70;66.10
34837;DHT22;21053;50.848;4.652;2023-04-03T09:25:17;17.20;69.30
34837;DHT22;21053;50.848;4.652;2023-04-03T09:27:44;17.20;63.20
34837;DHT22;21053;50.848;4.652;2023-04-03T09:30:19;17.50;61.70
34837;DHT22;21053;50.848;4.652;2023-04-03T09:32:48;17.90;60.90
34837;DHT22;21053;50.848;4.652;2023-04-03T09:35:24;18.60;60.30
34837;DHT22;21053;50.848;4.652;2023-04-03T09:37:54;19.60;59.00
34837;DHT22;21053;50.848;4.652;2023-04-03T09:42:52;21.20;55.80
34837;DHT22;21053;50.848;4.652;2023-04-03T09:45:36;20.20;55.70
34837;DHT22;21053;50.848;4.652;2023-04-03T09:48:16;21.40;54.90
34837;DHT22;21053;50.848;4.652;2023-04-03T09:51:01;21.30;55.10
34837;DHT22;21053;50.848;4.652;2023-04-03T09:56:18;22.50;51.00
34837;DHT22;21053;50.848;4.652;2023-04-03T10:01:33;20.50;53.00
34837;DHT22;21053;50.848;4.652;2023-04-03T10:04:14;21.50;51.10
34837;DHT22;21053;50.848;4.652;2023-04-03T10:06:47;21.00;51.00
34837;DHT22;21053;50.848;4.652;2023-04-03T10:09:22;22.10;52.00
34837;DHT22;21053;50.848;4.652;2023-04-03T10:14:24;22.90;49.80
34837;DHT22;21053;50.848;4.652;2023-04-03T10:17:25;23.70;48.90
34837;DHT22;21053;50.848;4.652;2023-04-03T10:25:50;24.80;42.40
34837;DHT22;21053;50.848;4.652;2023-04-03T10:28:26;23.10;46.10
34837;DHT22;21053;50.848;4.652;2023-04-03T10:31:13;22.90;46.60
34837;DHT22;21053;50.848;4.652;2023-04-03T10:39:02;24.50;44.00
34837;DHT22;21053;50.848;4.652;2023-04-03T10:50:52;23.50;45.60
34837;DHT22;21053;50.848;4.652;2023-04-03T10:56:11;24.10;44.10
34837;DHT22;21053;50.848;4.652;2023-04-03T10:58:45;23.90;43.20
34837;DHT22;21053;50.848;4.652;2023-04-03T11:01:24;22.60;44.40
34837;DHT22;21053;50.848;4.652;2023-04-03T11:03:56;23.10;42.70
34837;DHT22;21053;50.848;4.652;2023-04-03T11:06:26;22.10;44.20
34837;DHT22;21053;50.848;4.652;2023-04-03T11:12:23;21.80;43.60
34837;DHT22;21053;50.848;4.652;2023-04-03T11:14:51;22.00;41.90
34837;DHT22;21053;50.848;4.652;2023-04-03T11:17:35;22.00;43.20
34837;DHT22;21053;50.848;4.652;2023-04-03T11:23:01;23.10;44.50
34837;DHT22;21053;50.848;4.652;2023-04-03T11:25:32;23.30;41.80
34837;DHT22;21053;50.848;4.652;2023-04-03T11:28:04;23.10;42.20
34837;DHT22;21053;50.848;4.652;2023-04-03T11:30:54;23.00;44.80
34837;DHT22;21053;50.848;4.652;2023-04-03T11:33:47;22.00;44.10
34837;DHT22;21053;50.848;4.652;2023-04-03T11:36:24;21.20;43.40
34837;DHT22;21053;50.848;4.652;2023-04-03T11:38:55;21.20;42.10
34837;DHT22;21053;50.848;4.652;2023-04-03T11:41:31;20.70;43.30
34837;DHT22;21053;50.848;4.652;2023-04-03T11:44:37;20.90;42.90
34837;DHT22;21053;50.848;4.652;2023-04-03T11:47:06;21.80;42.60
34837;DHT22;21053;50.848;4.652;2023-04-03T11:50:00;21.50;41.70
34837;DHT22;21053;50.848;4.652;2023-04-03T12:03:55;21.60;40.80
34837;DHT22;21053;50.848;4.652;2023-04-03T12:08:54;21.60;40.40
34837;DHT22;21053;50.848;4.652;2023-04-03T12:11:29;22.00;42.90
34837;DHT22;21053;50.848;4.652;2023-04-03T12:16:43;20.20;40.00
34837;DHT22;21053;50.848;4.652;2023-04-03T12:19:38;20.30;41.00
34837;DHT22;21053;50.848;4.652;2023-04-03T12:22:14;20.10;42.50
34837;DHT22;21053;50.848;4.652;2023-04-03T12:24:50;20.20;40.40
34837;DHT22;21053;50.848;4.652;2023-04-03T12:27:33;20.40;42.20
34837;DHT22;21053;50.848;4.652;2023-04-03T12:30:35;20.10;41.40
34837;DHT22;21053;50.848;4.652;2023-04-03T12:33:16;19.30;41.70
34837;DHT22;21053;50.848;4.652;2023-04-03T12:46:52;14.90;47.20
34837;DHT22;21053;50.848;4.652;2023-04-03T12:51:56;14.00;50.60
34837;DHT22;21053;50.848;4.652;2023-04-03T12:55:22;14.20;51.80
34837;DHT22;21053;50.848;4.652;2023-04-03T12:57:49;13.90;46.10
34837;DHT22;21053;50.848;4.652;2023-04-03T13:00:35;13.60;48.60
34837;DHT22;21053;50.848;4.652;2023-04-03T13:03:05;13.80;48.60
34837;DHT22;21053;50.848;4.652;2023-04-03T13:05:34;13.90;49.80
34837;DHT22;21053;50.848;4.652;2023-04-03T13:08:08;13.90;52.90
34837;DHT22;21053;50.848;4.652;2023-04-03T13:10:55;13.60;49.80
34837;DHT22;21053;50.848;4.652;2023-04-03T13:13:26;13.60;52.20
34837;DHT22;21053;50.848;4.652;2023-04-03T13:15:54;13.20;53.10
34837;DHT22;21053;50.848;4.652;2023-04-03T13:21:01;12.80;55.20
34837;DHT22;21053;50.848;4.652;2023-04-03T13:23:28;13.20;54.70
34837;DHT22;21053;50.848;4.652;2023-04-03T13:25:58;12.70;52.60
34837;DHT22;21053;50.848;4.652;2023-04-03T13:28:32;12.80;53.80
34837;DHT22;21053;50.848;4.652;2023-04-03T13:31:13;12.90;53.40
34837;DHT22;21053;50.848;4.652;2023-04-03T13:34:13;12.90;53.60
34837;DHT22;21053;50.848;4.652;2023-04-03T13:36:54;13.10;54.10
34837;DHT22;21053;50.848;4.652;2023-04-03T13:39:28;12.70;51.90
34837;DHT22;21053;50.848;4.652;2023-04-03T13:41:59;12.60;52.50
34837;DHT22;21053;50.848;4.652;2023-04-03T13:44:35;12.80;53.60
34837;DHT22;21053;50.848;4.652;2023-04-03T13:49:41;12.80;54.60
34837;DHT22;21053;50.848;4.652;2023-04-03T13:52:33;13.00;54.90
34837;DHT22;21053;50.848;4.652;2023-04-03T13:55:25;12.90;52.70
34837;DHT22;21053;50.848;4.652;2023-04-03T13:58:16;12.90;53.20
34837;DHT22;21053;50.848;4.652;2023-04-03T14:00:56;12.60;51.30
34837;DHT22;21053;50.848;4.652;2023-04-03T14:04:21;12.60;52.90
34837;DHT22;21053;50.848;4.652;2023-04-03T14:07:06;12.80;52.00
34837;DHT22;21053;50.848;4.652;2023-04-03T14:09:32;12.60;52.90
34837;DHT22;21053;50.848;4.652;2023-04-03T14:12:24;12.60;49.80
34837;DHT22;21053;50.848;4.652;2023-04-03T14:14:51;12.50;53.40
34837;DHT22;21053;50.848;4.652;2023-04-03T14:17:21;12.60;52.60
34837;DHT22;21053;50.848;4.652;2023-04-03T14:19:50;12.40;53.10
34837;DHT22;21053;50.848;4.652;2023-04-03T14:24:44;12.20;54.00
34837;DHT22;21053;50.848;4.652;2023-04-03T14:27:21;12.40;53.20
34837;DHT22;21053;50.848;4.652;2023-04-03T14:29:47;12.40;54.50
34837;DHT22;21053;50.848;4.652;2023-04-03T14:32:16;12.40;54.90
34837;DHT22;21053;50.848;4.652;2023-04-03T14:34:43;12.60;53.10
34837;DHT22;21053;50.848;4.652;2023-04-03T14:37:12;12.60;51.40
34837;DHT22;21053;50.848;4.652;2023-04-03T14:39:42;12.70;53.00
34837;DHT22;21053;50.848;4.652;2023-04-03T14:42:23;12.90;51.10
34837;DHT22;21053;50.848;4.652;2023-04-03T14:44:49;12.70;51.60
34837;DHT22;21053;50.848;4.652;2023-04-03T14:47:20;12.50;54.40
34837;DHT22;21053;50.848;4.652;2023-04-03T14:49:47;12.50;56.30
34837;DHT22;21053;50.848;4.652;2023-04-03T14:52:24;12.40;56.00
34837;DHT22;21053;50.848;4.652;2023-04-03T14:54:52;12.40;55.40
34837;DHT22;21053;50.848;4.652;2023-04-03T14:57:22;12.30;55.90
34837;DHT22;21053;50.848;4.652;2023-04-03T14:59:50;12.30;56.50
34837;DHT22;21053;50.848;4.652;2023-04-03T15:02:36;12.40;56.00
34837;DHT22;21053;50.848;4.652;2023-04-03T15:05:08;12.40;56.00
34837;DHT22;21053;50.848;4.652;2023-04-03T15:07:39;12.40;56.30
34837;DHT22;21053;50.848;4.652;2023-04-03T15:10:23;12.30;54.90
34837;DHT22;21053;50.848;4.652;2023-04-03T15:12:52;12.30;57.20
34837;DHT22;21053;50.848;4.652;2023-04-03T15:15:22;12.40;56.70
34837;DHT22;21053;50.848;4.652;2023-04-03T15:17:53;12.30;55.50
34837;DHT22;21053;50.848;4.652;2023-04-03T15:20:25;12.30;55.30
34837;DHT22;21053;50.848;4.652;2023-04-03T15:22:52;12.30;55.90
34837;DHT22;21053;50.848;4.652;2023-04-03T15:25:19;12.40;56.60
34837;DHT22;21053;50.848;4.652;2023-04-03T15:27:46;12.20;57.50
34837;DHT22;21053;50.848;4.652;2023-04-03T15:30:16;12.10;57.90
34837;DHT22;21053;50.848;4.652;2023-04-03T15:32:43;12.20;55.60
34837;DHT22;21053;50.848;4.652;2023-04-03T15:35:09;11.90;56.50
34837;DHT22;21053;50.848;4.652;2023-04-03T15:37:34;11.70;56.70
34837;DHT22;21053;50.848;4.652;2023-04-03T15:40:01;11.60;58.00
34837;DHT22;21053;50.848;4.652;2023-04-03T15:42:28;11.60;58.00
34837;DHT22;21053;50.848;4.652;2023-04-03T15:44:55;11.50;58.40
34837;DHT22;21053;50.848;4.652;2023-04-03T15:47:24;11.60;59.40
34837;DHT22;21053;50.848;4.652;2023-04-03T15:49:51;11.70;58.80
34837;DHT22;21053;50.848;4.652;2023-04-03T15:52:18;11.70;58.40
34837;DHT22;21053;50.848;4.652;2023-04-03T15:54:45;11.50;58.70
34837;DHT22;21053;50.848;4.652;2023-04-03T15:57:12;11.50;58.20
34837;DHT22;21053;50.848;4.652;2023-04-03T15:59:37;11.50;58.10
34837;DHT22;21053;50.848;4.652;2023-04-03T16:02:06;11.40;59.70
34837;DHT22;21053;50.848;4.652;2023-04-03T16:04:36;11.40;58.80
34837;DHT22;21053;50.848;4.652;2023-04-03T16:07:04;11.40;58.90
34837;DHT22;21053;50.848;4.652;2023-04-03T16:09:32;11.40;60.00
34837;DHT22;21053;50.848;4.652;2023-04-03T16:11:59;11.10;59.60
34837;DHT22;21053;50.848;4.652;2023-04-03T16:14:27;11.20;60.90
34837;DHT22;21053;50.848;4.652;2023-04-03T16:16:55;11.10;61.30
34837;DHT22;21053;50.848;4.652;2023-04-03T16:19:23;11.00;61.00
34837;DHT22;21053;50.848;4.652;2023-04-03T16:21:51;10.90;61.40
34837;DHT22;21053;50.848;4.652;2023-04-03T16:24:19;11.10;60.60
34837;DHT22;21053;50.848;4.652;2023-04-03T16:26:51;11.00;62.10
34837;DHT22;21053;50.848;4.652;2023-04-03T16:29:18;11.00;60.10
34837;DHT22;21053;50.848;4.652;2023-04-03T16:31:47;10.90;61.70
34837;DHT22;21053;50.848;4.652;2023-04-03T16:34:16;10.90;63.80
34837;DHT22;21053;50.848;4.652;2023-04-03T16:36:45;11.00;60.80
34837;DHT22;21053;50.848;4.652;2023-04-03T16:39:12;10.80;63.40
34837;DHT22;21053;50.848;4.652;2023-04-03T16:41:39;10.80;63.00
34837;DHT22;21053;50.848;4.652;2023-04-03T16:44:07;10.80;62.20
34837;DHT22;21053;50.848;4.652;2023-04-03T16:46:34;10.70;63.40
34837;DHT22;21053;50.848;4.652;2023-04-03T16:49:01;10.70;61.90
34837;DHT22;21053;50.848;4.652;2023-04-03T16:51:30;10.70;61.00
34837;DHT22;21053;50.848;4.652;2023-04-03T16:53:57;10.70;60.70
34837;DHT22;21053;50.848;4.652;2023-04-03T16:56:26;10.60;62.10
34837;DHT22;21053;50.848;4.652;2023-04-03T16:58:53;10.50;61.30
34837;DHT22;21053;50.848;4.652;2023-04-03T17:01:22;10.50;61.90
34837;DHT22;21053;50.848;4.652;2023-04-03T17:03:48;10.50;63.60
34837;DHT22;21053;50.848;4.652;2023-04-03T17:06:18;10.50;61.80
34837;DHT22;21053;50.848;4.652;2023-04-03T17:08:48;10.50;62.00
34837;DHT22;21053;50.848;4.652;2023-04-03T17:11:17;10.50;61.30
34837;DHT22;21053;50.848;4.652;2023-04-03T17:13:46;10.50;60.70
34837;DHT22;21053;50.848;4.652;2023-04-03T17:16:14;10.30;61.10
34837;DHT22;21053;50.848;4.652;2023-04-03T17:18:42;10.10;63.10
34837;DHT22;21053;50.848;4.652;2023-04-03T17:21:09;10.10;63.10
34837;DHT22;21053;50.848;4.652;2023-04-03T17:23:36;10.10;62.40
34837;DHT22;21053;50.848;4.652;2023-04-03T17:26:03;10.00;63.60
34837;DHT22;21053;50.848;4.652;2023-04-03T17:28:30;10.00;62.00
34837;DHT22;21053;50.848;4.652;2023-04-03T17:30:59;9.90;63.30